createdAt,value
2017-07-11T00:02:03.894Z,16.60
2017-07-11T00:04:32.872Z,16.60
2017-07-11T00:07:01.049Z,16.60
2017-07-11T00:09:29.229Z,16.60
2017-07-11T00:11:57.443Z,16.60
2017-07-11T00:14:25.632Z,16.60
2017-07-11T00:16:53.811Z,16.60
2017-07-11T00:19:22.019Z,16.60
2017-07-11T00:21:50.192Z,16.50
2017-07-11T00:24:18.371Z,16.60
2017-07-11T00:26:46.585Z,16.60
2017-07-11T00:29:14.761Z,16.60
2017-07-11T00:31:42.941Z,16.60
2017-07-11T00:34:11.146Z,16.60
2017-07-11T00:36:39.315Z,16.70
2017-07-11T00:39:07.479Z,16.70
2017-07-11T00:41:35.666Z,16.70
2017-07-11T00:44:03.862Z,16.70
2017-07-11T00:46:32.037Z,16.80
2017-07-11T00:49:00.214Z,16.80
2017-07-11T00:51:28.373Z,16.70
2017-07-11T00:53:56.548Z,16.70
2017-07-11T00:56:24.753Z,16.50
2017-07-11T00:58:52.910Z,16.50
2017-07-11T01:01:21.082Z,16.60
2017-07-11T01:03:49.271Z,16.50
2017-07-11T01:06:17.422Z,16.50
2017-07-11T01:08:45.583Z,16.40
2017-07-11T01:11:13.760Z,16.30
2017-07-11T01:13:41.944Z,16.30
2017-07-11T01:16:10.101Z,16.40
2017-07-11T01:18:38.302Z,16.40
2017-07-11T01:21:06.484Z,16.40
2017-07-11T01:23:34.661Z,16.30
2017-07-11T01:26:02.862Z,16.20
2017-07-11T01:28:31.019Z,16.30
2017-07-11T01:30:59.963Z,16.30
2017-07-11T01:33:28.473Z,16.30
2017-07-11T01:35:56.654Z,16.40
2017-07-11T01:38:24.804Z,16.30
2017-07-11T01:40:52.978Z,16.30
2017-07-11T01:43:21.754Z,16.40
2017-07-11T01:45:49.945Z,16.50
2017-07-11T01:48:18.150Z,16.50
2017-07-11T01:50:46.333Z,16.60
2017-07-11T01:53:14.491Z,16.60
2017-07-11T01:55:42.678Z,16.50
2017-07-11T01:58:10.853Z,16.50
2017-07-11T02:00:39.027Z,16.60
2017-07-11T02:03:07.223Z,16.60
2017-07-11T02:05:36.164Z,16.70
2017-07-11T02:08:04.344Z,16.60
2017-07-11T02:10:32.542Z,16.60
2017-07-11T02:13:00.709Z,16.60
2017-07-11T02:15:28.880Z,16.60
2017-07-11T02:17:57.072Z,16.40
2017-07-11T02:20:25.232Z,16.40
2017-07-11T02:22:53.390Z,16.40
2017-07-11T02:25:21.585Z,16.50
2017-07-11T02:27:49.758Z,16.50
2017-07-11T02:30:17.927Z,16.50
2017-07-11T02:32:46.110Z,16.50
2017-07-11T02:35:14.286Z,16.60
2017-07-11T02:37:42.464Z,16.60
2017-07-11T02:40:10.654Z,16.60
2017-07-11T02:42:39.601Z,16.60
2017-07-11T02:45:07.746Z,16.60
2017-07-11T02:47:35.931Z,16.60
2017-07-11T02:50:04.108Z,16.70
2017-07-11T02:52:32.280Z,16.60
2017-07-11T02:55:00.483Z,16.60
2017-07-11T02:57:28.642Z,16.60
2017-07-11T02:59:56.821Z,16.70
2017-07-11T03:02:25.008Z,16.70
2017-07-11T03:04:53.187Z,16.70
2017-07-11T03:07:21.339Z,16.70
2017-07-11T03:09:49.573Z,16.50
2017-07-11T03:12:18.506Z,16.50
2017-07-11T03:14:46.686Z,16.50
2017-07-11T03:17:14.884Z,16.60
2017-07-11T03:19:43.039Z,16.70
2017-07-11T03:22:11.217Z,16.80
2017-07-11T03:24:39.422Z,16.80
2017-07-11T03:27:07.601Z,16.70
2017-07-11T03:29:36.532Z,16.70
2017-07-11T03:32:04.732Z,16.70
2017-07-11T03:34:32.903Z,16.70
2017-07-11T03:37:01.077Z,16.70
2017-07-11T03:39:29.262Z,16.70
2017-07-11T03:41:57.410Z,16.80
2017-07-11T03:44:25.582Z,16.80
2017-07-11T03:46:53.793Z,17.00
2017-07-11T03:49:21.965Z,16.90
2017-07-11T03:51:50.144Z,17.00
2017-07-11T03:54:18.327Z,17.00
2017-07-11T03:56:46.501Z,17.10
2017-07-11T03:59:14.681Z,17.10
2017-07-11T04:01:42.885Z,17.10
2017-07-11T04:04:11.083Z,17.10
2017-07-11T04:06:39.266Z,17.10
2017-07-11T04:09:07.453Z,17.10
2017-07-11T04:11:35.634Z,17.10
2017-07-11T04:14:03.804Z,17.10
2017-07-11T04:16:31.998Z,17.10
2017-07-11T04:19:00.157Z,17.20
2017-07-11T04:21:28.326Z,17.20
2017-07-11T04:23:56.537Z,17.10
2017-07-11T04:26:24.708Z,17.10
2017-07-11T04:28:52.869Z,17.10
2017-07-11T04:31:21.069Z,17.20
2017-07-11T04:33:49.234Z,17.20
2017-07-11T04:36:17.407Z,17.30
2017-07-11T04:38:45.594Z,17.30
2017-07-11T04:41:13.765Z,17.30
2017-07-11T04:43:41.918Z,17.30
2017-07-11T04:46:10.119Z,17.40
2017-07-11T04:48:38.283Z,17.30
2017-07-11T04:51:06.454Z,17.30
2017-07-11T04:53:34.669Z,17.30
2017-07-11T04:56:03.606Z,17.20
2017-07-11T04:58:31.776Z,17.20
2017-07-11T05:00:59.976Z,17.20
2017-07-11T05:03:28.130Z,17.30
2017-07-11T05:05:56.293Z,17.30
2017-07-11T05:08:24.497Z,17.40
2017-07-11T05:10:52.651Z,17.40
2017-07-11T05:13:20.825Z,17.40
2017-07-11T05:15:49.039Z,17.40
2017-07-11T05:18:17.212Z,17.40
2017-07-11T05:20:45.385Z,17.50
2017-07-11T05:23:13.561Z,17.50
2017-07-11T05:25:41.736Z,17.50
2017-07-11T05:28:09.913Z,17.60
2017-07-11T05:30:38.107Z,17.50
2017-07-11T05:33:06.268Z,17.40
2017-07-11T05:35:35.200Z,17.50
2017-07-11T05:38:03.407Z,17.40
2017-07-11T05:40:31.590Z,17.30
2017-07-11T05:42:59.747Z,17.40
2017-07-11T05:45:27.950Z,17.50
2017-07-11T05:47:56.094Z,17.50
2017-07-11T05:50:24.306Z,17.50
2017-07-11T05:52:52.469Z,17.60
2017-07-11T05:55:20.645Z,17.50
2017-07-11T05:57:49.663Z,17.60
2017-07-11T06:00:18.646Z,17.70
2017-07-11T06:02:46.814Z,17.70
2017-07-11T06:05:14.989Z,17.70
2017-07-11T06:07:43.499Z,17.80
2017-07-11T06:10:12.428Z,17.60
2017-07-11T06:12:40.605Z,17.60
2017-07-11T06:15:08.791Z,17.70
2017-07-11T06:17:36.967Z,17.80
2017-07-11T06:20:05.892Z,17.60
2017-07-11T06:22:34.084Z,17.60
2017-07-11T06:25:02.253Z,17.60
2017-07-11T06:27:30.426Z,17.80
2017-07-11T06:29:58.606Z,17.90
2017-07-11T06:32:26.777Z,17.80
2017-07-11T06:34:54.934Z,17.80
2017-07-11T06:37:23.165Z,17.70
2017-07-11T06:39:51.342Z,17.80
2017-07-11T06:42:19.494Z,18.00
2017-07-11T06:44:47.703Z,18.10
2017-07-11T06:47:16.624Z,18.30
2017-07-11T06:49:44.801Z,18.30
2017-07-11T06:52:12.988Z,18.40
2017-07-11T06:54:41.148Z,18.50
2017-07-11T06:57:09.321Z,18.50
2017-07-11T06:59:37.519Z,18.60
2017-07-11T07:02:05.698Z,18.60
2017-07-11T07:04:33.872Z,18.70
2017-07-11T07:07:02.069Z,18.80
2017-07-11T07:09:30.247Z,18.80
2017-07-11T07:11:58.425Z,18.80
2017-07-11T07:14:26.606Z,18.90
2017-07-11T07:16:54.782Z,18.90
2017-07-11T07:19:22.980Z,19.00
2017-07-11T07:21:51.946Z,19.30
2017-07-11T07:24:20.107Z,19.30
2017-07-11T07:26:48.321Z,19.50
2017-07-11T07:29:17.275Z,19.60
2017-07-11T07:31:45.435Z,19.60
2017-07-11T07:34:13.609Z,19.70
2017-07-11T07:36:41.809Z,19.70
2017-07-11T07:39:09.963Z,19.70
2017-07-11T07:41:38.138Z,19.70
2017-07-11T07:44:06.332Z,19.70
2017-07-11T07:46:34.501Z,19.80
2017-07-11T07:49:02.659Z,19.80
2017-07-11T07:51:30.837Z,19.70
2017-07-11T07:53:58.986Z,19.70
2017-07-11T07:56:27.149Z,19.70
2017-07-11T07:58:55.336Z,19.70
2017-07-11T08:01:23.507Z,19.80
2017-07-11T08:03:51.655Z,19.70
2017-07-11T08:06:20.602Z,19.70
2017-07-11T08:08:48.777Z,19.70
2017-07-11T08:11:16.934Z,19.60
2017-07-11T08:13:45.134Z,19.60
2017-07-11T08:16:13.311Z,19.70
2017-07-11T08:18:41.468Z,20.00
2017-07-11T08:21:09.652Z,20.40
2017-07-11T08:23:37.829Z,20.40
2017-07-11T08:26:05.987Z,20.50
2017-07-11T08:28:34.180Z,21.00
2017-07-11T08:31:02.378Z,22.50
2017-07-11T08:33:30.532Z,24.30
2017-07-11T08:35:58.752Z,26.00
2017-07-11T08:38:26.922Z,26.60
2017-07-11T08:40:55.105Z,26.70
2017-07-11T08:43:23.301Z,27.40
2017-07-11T08:45:51.477Z,27.90
2017-07-11T08:48:19.649Z,28.30
2017-07-11T08:50:48.196Z,28.00
2017-07-11T08:53:16.381Z,27.10
2017-07-11T08:55:44.563Z,26.30
2017-07-11T08:58:12.769Z,25.10
2017-07-11T09:00:40.950Z,24.50
2017-07-11T09:03:09.106Z,24.20
2017-07-11T09:05:37.295Z,23.90
2017-07-11T09:08:05.469Z,23.60
2017-07-11T09:10:33.637Z,23.30
2017-07-11T09:13:01.842Z,23.10
2017-07-11T09:15:30.002Z,23.10
2017-07-11T09:17:58.183Z,23.40
2017-07-11T09:20:26.368Z,23.50
2017-07-11T09:22:54.544Z,23.80
2017-07-11T09:25:22.703Z,24.10
2017-07-11T09:27:50.912Z,24.60
2017-07-11T09:30:19.839Z,26.80
2017-07-11T09:32:48.022Z,26.80
2017-07-11T09:35:16.208Z,28.50
2017-07-11T09:37:44.361Z,30.10
2017-07-11T09:40:12.536Z,30.50
2017-07-11T09:42:40.723Z,29.80
2017-07-11T09:45:08.878Z,29.60
2017-07-11T09:47:37.056Z,29.20
2017-07-11T09:50:05.273Z,28.50
2017-07-11T09:52:33.454Z,27.80
2017-07-11T09:55:01.628Z,27.20
2017-07-11T09:57:29.818Z,26.40
2017-07-11T09:59:58.747Z,25.70
2017-07-11T10:02:26.928Z,25.70
2017-07-11T10:04:55.137Z,26.50
2017-07-11T10:07:23.322Z,26.80
2017-07-11T10:09:51.501Z,26.80
2017-07-11T10:12:19.704Z,27.50
2017-07-11T10:14:47.859Z,28.70
2017-07-11T10:17:16.013Z,30.30
2017-07-11T10:19:44.195Z,31.00
2017-07-11T10:22:12.366Z,30.60
2017-07-11T10:24:40.549Z,30.60
2017-07-11T10:27:08.757Z,30.90
2017-07-11T10:29:36.936Z,31.40
2017-07-11T10:32:05.122Z,31.30
2017-07-11T10:34:33.325Z,32.00
2017-07-11T10:37:01.502Z,31.90
2017-07-11T10:39:29.657Z,31.10
2017-07-11T10:41:57.848Z,32.80
2017-07-11T10:44:25.998Z,34.30
2017-07-11T10:46:54.174Z,34.50
2017-07-11T10:49:22.380Z,34.00
2017-07-11T10:51:50.529Z,32.90
2017-07-11T10:54:18.690Z,30.90
2017-07-11T10:56:46.879Z,29.10
2017-07-11T10:59:15.034Z,28.00
2017-07-11T11:01:43.196Z,26.90
2017-07-11T11:04:12.184Z,25.70
2017-07-11T11:06:41.115Z,24.80
2017-07-11T11:09:09.275Z,24.70
2017-07-11T11:11:37.464Z,24.20
2017-07-11T11:14:05.638Z,24.00
2017-07-11T11:16:33.820Z,23.90
2017-07-11T11:19:02.028Z,23.90
2017-07-11T11:21:30.200Z,24.00
2017-07-11T11:23:58.392Z,24.30
2017-07-11T11:26:26.597Z,25.10
2017-07-11T11:28:54.761Z,26.60
2017-07-11T11:31:23.701Z,28.20
2017-07-11T11:33:51.909Z,28.20
2017-07-11T11:36:20.147Z,28.90
2017-07-11T11:38:48.351Z,28.90
2017-07-11T11:41:16.920Z,28.70
2017-07-11T11:43:45.080Z,27.60
2017-07-11T11:46:13.242Z,27.00
2017-07-11T11:48:41.447Z,26.10
2017-07-11T11:51:09.603Z,25.80
2017-07-11T11:53:37.774Z,25.60
2017-07-11T11:56:05.977Z,25.70
2017-07-11T11:58:34.132Z,25.50
2017-07-11T12:01:02.308Z,24.80
2017-07-11T12:03:30.513Z,23.40
2017-07-11T12:05:58.681Z,22.40
2017-07-11T12:08:26.865Z,21.80
2017-07-11T12:10:55.073Z,21.50
2017-07-11T12:13:23.255Z,21.30
2017-07-11T12:15:51.435Z,21.20
2017-07-11T12:18:19.626Z,21.20
2017-07-11T12:20:47.779Z,21.10
2017-07-11T12:23:15.938Z,21.20
2017-07-11T12:25:44.886Z,22.20
2017-07-11T12:28:13.058Z,22.20
2017-07-11T12:30:41.216Z,22.70
2017-07-11T12:33:09.411Z,22.70
2017-07-11T12:35:37.574Z,22.90
2017-07-11T12:38:05.753Z,23.00
2017-07-11T12:40:33.957Z,23.10
2017-07-11T12:43:02.137Z,23.10
2017-07-11T12:45:30.314Z,23.30
2017-07-11T12:47:58.502Z,23.50
2017-07-11T12:50:27.453Z,23.90
2017-07-11T12:52:55.615Z,23.80
2017-07-11T12:55:23.810Z,23.60
2017-07-11T12:57:51.976Z,23.60
2017-07-11T13:00:20.156Z,23.60
2017-07-11T13:02:48.362Z,23.80
2017-07-11T13:05:17.306Z,24.00
2017-07-11T13:07:45.478Z,23.90
2017-07-11T13:10:13.680Z,24.20
2017-07-11T13:12:41.859Z,24.50
2017-07-11T13:15:10.012Z,24.80
2017-07-11T13:17:38.206Z,24.70
2017-07-11T13:20:06.367Z,24.30
2017-07-11T13:22:34.544Z,24.10
2017-07-11T13:25:02.724Z,23.90
2017-07-11T13:27:30.870Z,23.70
2017-07-11T13:29:59.033Z,23.60
2017-07-11T13:32:27.237Z,23.50
2017-07-11T13:34:55.394Z,23.20
2017-07-11T13:37:23.560Z,23.10
2017-07-11T13:39:51.754Z,23.10
2017-07-11T13:42:19.925Z,23.30
2017-07-11T13:44:48.114Z,23.30
2017-07-11T13:47:16.322Z,23.10
2017-07-11T13:49:45.247Z,22.70
2017-07-11T13:52:13.445Z,22.60
2017-07-11T13:54:41.669Z,22.60
2017-07-11T13:57:10.595Z,22.40
2017-07-11T13:59:38.749Z,22.40
2017-07-11T14:02:07.695Z,22.40
2017-07-11T14:04:35.849Z,22.30
2017-07-11T14:07:04.021Z,22.30
2017-07-11T14:09:32.221Z,22.30
2017-07-11T14:12:00.379Z,22.20
2017-07-11T14:14:28.578Z,22.20
2017-07-11T14:16:56.763Z,22.40
2017-07-11T14:19:24.941Z,22.40
2017-07-11T14:21:53.098Z,22.50
2017-07-11T14:24:22.069Z,22.90
2017-07-11T14:26:50.249Z,22.90
2017-07-11T14:29:18.429Z,22.90
2017-07-11T14:31:46.616Z,22.80
2017-07-11T14:34:14.787Z,22.70
2017-07-11T14:36:42.962Z,22.70
2017-07-11T14:39:11.148Z,22.70
2017-07-11T14:41:39.306Z,22.70
2017-07-11T14:44:07.454Z,22.90
2017-07-11T14:46:35.639Z,23.10
2017-07-11T14:49:03.791Z,23.20
2017-07-11T14:51:31.962Z,23.40
2017-07-11T14:54:00.163Z,23.50
2017-07-11T14:56:28.315Z,23.40
2017-07-11T14:58:56.481Z,23.30
2017-07-11T15:01:24.667Z,23.30
2017-07-11T15:03:52.832Z,23.20
2017-07-11T15:06:20.980Z,23.30
2017-07-11T15:08:49.924Z,23.40
2017-07-11T15:11:18.079Z,23.30
2017-07-11T15:13:46.227Z,23.60
2017-07-11T15:16:15.181Z,23.90
2017-07-11T15:18:43.326Z,23.90
2017-07-11T15:21:11.472Z,23.80
2017-07-11T15:23:39.665Z,23.70
2017-07-11T15:26:07.814Z,23.60
2017-07-11T15:28:35.966Z,23.50
2017-07-11T15:31:04.142Z,23.30
2017-07-11T15:33:32.291Z,23.30
2017-07-11T15:36:00.460Z,23.40
2017-07-11T15:38:28.654Z,23.40
2017-07-11T15:40:56.802Z,23.50
2017-07-11T15:43:24.971Z,23.50
2017-07-11T15:45:53.170Z,23.60
2017-07-11T15:48:21.319Z,23.50
2017-07-11T15:50:49.484Z,23.50
2017-07-11T15:53:18.435Z,23.70
2017-07-11T15:55:46.583Z,23.70
2017-07-11T15:58:14.757Z,23.80
2017-07-11T16:00:42.941Z,23.80
2017-07-11T16:03:11.094Z,23.70
2017-07-11T16:05:39.253Z,23.60
2017-07-11T16:08:08.225Z,23.80
2017-07-11T16:10:36.374Z,23.70
2017-07-11T16:13:04.542Z,23.80
2017-07-11T16:15:32.715Z,23.90
2017-07-11T16:18:00.881Z,23.90
2017-07-11T16:20:29.042Z,24.00
2017-07-11T16:22:58.569Z,24.10
2017-07-11T16:25:26.742Z,24.30
2017-07-11T16:27:54.891Z,24.30
2017-07-11T16:30:23.062Z,24.20
2017-07-11T16:32:51.228Z,24.10
2017-07-11T16:35:19.397Z,24.00
2017-07-11T16:37:48.465Z,23.90
2017-07-11T16:40:16.637Z,23.80
2017-07-11T16:42:44.827Z,23.80
2017-07-11T16:45:13.797Z,23.30
2017-07-11T16:47:41.958Z,23.30
2017-07-11T16:50:10.137Z,23.30
2017-07-11T16:52:38.323Z,23.20
2017-07-11T16:55:06.498Z,23.10
2017-07-11T16:57:34.673Z,22.90
2017-07-11T17:00:02.852Z,22.60
2017-07-11T17:02:31.014Z,22.10
2017-07-11T17:04:59.933Z,20.80
2017-07-11T17:07:28.157Z,20.80
2017-07-11T17:09:56.323Z,20.50
2017-07-11T17:12:24.502Z,20.30
2017-07-11T17:14:52.686Z,20.20
2017-07-11T17:17:20.845Z,20.00
2017-07-11T17:19:49.007Z,20.00
2017-07-11T17:22:17.189Z,20.00
2017-07-11T17:24:45.338Z,20.10
2017-07-11T17:27:13.494Z,20.10
2017-07-11T17:29:41.686Z,20.10
2017-07-11T17:32:09.858Z,20.10
2017-07-11T17:34:38.016Z,20.20
2017-07-11T17:37:06.634Z,20.30
2017-07-11T17:39:34.805Z,20.30
2017-07-11T17:42:02.985Z,20.40
2017-07-11T17:44:31.193Z,20.30
2017-07-11T17:46:59.350Z,20.50
2017-07-11T17:49:27.520Z,20.40
2017-07-11T17:51:55.717Z,20.50
2017-07-11T17:54:24.667Z,20.60
2017-07-11T17:56:52.833Z,20.60
2017-07-11T17:59:21.053Z,20.70
2017-07-11T18:01:49.234Z,20.70
2017-07-11T18:04:17.388Z,20.70
2017-07-11T18:06:45.605Z,20.60
2017-07-11T18:09:13.761Z,20.50
2017-07-11T18:11:42.687Z,20.40
2017-07-11T18:14:10.888Z,20.40
2017-07-11T18:16:39.067Z,20.40
2017-07-11T18:19:07.248Z,20.40
2017-07-11T18:21:35.427Z,20.40
2017-07-11T18:24:03.592Z,20.40
2017-07-11T18:26:31.751Z,20.30
2017-07-11T18:28:59.938Z,20.20
2017-07-11T18:31:28.114Z,20.10
2017-07-11T18:33:56.296Z,20.10
2017-07-11T18:36:24.485Z,20.10
2017-07-11T18:38:52.647Z,20.10
2017-07-11T18:41:20.810Z,20.10
2017-07-11T18:43:49.025Z,20.10
2017-07-11T18:46:17.973Z,20.00
2017-07-11T18:48:46.139Z,20.00
2017-07-11T18:51:14.349Z,20.00
2017-07-11T18:53:42.529Z,20.00
2017-07-11T18:56:10.712Z,19.90
2017-07-11T18:58:38.931Z,19.90
2017-07-11T19:01:07.094Z,19.80
2017-07-11T19:03:35.252Z,19.80
2017-07-11T19:06:04.210Z,19.80
2017-07-11T19:08:32.373Z,19.80
2017-07-11T19:11:00.529Z,19.70
2017-07-11T19:13:28.739Z,19.80
2017-07-11T19:15:56.915Z,19.80
2017-07-11T19:18:25.100Z,19.70
2017-07-11T19:20:53.309Z,19.60
2017-07-11T19:23:22.242Z,19.60
2017-07-11T19:25:50.401Z,19.60
2017-07-11T19:28:18.618Z,19.60
2017-07-11T19:30:46.810Z,19.60
2017-07-11T19:33:15.048Z,19.60
2017-07-11T19:35:43.235Z,19.60
2017-07-11T19:38:11.409Z,19.60
2017-07-11T19:40:39.565Z,19.60
2017-07-11T19:43:07.772Z,19.50
2017-07-11T19:45:35.935Z,19.50
2017-07-11T19:48:04.874Z,19.50
2017-07-11T19:50:33.077Z,19.50
2017-07-11T19:53:01.255Z,19.30
2017-07-11T19:55:29.429Z,19.20
2017-07-11T19:57:57.624Z,19.20
2017-07-11T20:00:26.565Z,19.10
2017-07-11T20:02:54.883Z,19.10
2017-07-11T20:05:23.079Z,19.00
2017-07-11T20:07:52.011Z,18.90
2017-07-11T20:10:20.172Z,18.90
2017-07-11T20:12:48.387Z,18.90
2017-07-11T20:15:16.561Z,18.90
2017-07-11T20:17:44.715Z,18.80
2017-07-11T20:20:12.942Z,18.70
2017-07-11T20:22:41.865Z,18.70
2017-07-11T20:25:10.023Z,18.70
2017-07-11T20:27:38.235Z,18.70
2017-07-11T20:30:06.394Z,18.70
2017-07-11T20:32:34.563Z,18.70
2017-07-11T20:35:02.778Z,18.70
2017-07-11T20:37:30.956Z,18.70
2017-07-11T20:39:59.119Z,18.60
2017-07-11T20:42:27.300Z,18.50
2017-07-11T20:44:55.485Z,18.50
2017-07-11T20:47:23.646Z,18.50
2017-07-11T20:49:51.825Z,18.50
2017-07-11T20:52:20.012Z,18.40
2017-07-11T20:54:48.176Z,18.40
2017-07-11T20:57:16.356Z,18.40
2017-07-11T20:59:44.530Z,18.50
2017-07-11T21:02:12.691Z,18.40
2017-07-11T21:04:40.881Z,18.30
2017-07-11T21:07:09.036Z,18.30
2017-07-11T21:09:37.202Z,18.30
2017-07-11T21:12:05.415Z,18.20
2017-07-11T21:14:33.579Z,18.30
2017-07-11T21:17:01.753Z,18.30
2017-07-11T21:19:29.964Z,18.10
2017-07-11T21:21:58.882Z,18.00
2017-07-11T21:24:27.134Z,18.00
2017-07-11T21:26:55.374Z,18.00
2017-07-11T21:29:23.547Z,18.00
2017-07-11T21:31:51.704Z,18.00
2017-07-11T21:34:19.911Z,17.90
2017-07-11T21:36:48.843Z,17.90
2017-07-11T21:39:17.030Z,17.80
2017-07-11T21:41:45.208Z,17.80
2017-07-11T21:44:13.402Z,17.80
2017-07-11T21:46:41.571Z,17.80
2017-07-11T21:49:09.774Z,17.70
2017-07-11T21:51:37.924Z,17.70
2017-07-11T21:54:06.084Z,17.70
2017-07-11T21:56:34.272Z,17.70
2017-07-11T21:59:02.420Z,17.70
2017-07-11T22:01:30.578Z,17.60
2017-07-11T22:03:59.303Z,17.60
2017-07-11T22:06:27.473Z,17.60
2017-07-11T22:08:55.644Z,17.60
2017-07-11T22:11:23.823Z,17.70
2017-07-11T22:13:52.174Z,17.60
2017-07-11T22:16:20.341Z,17.60
2017-07-11T22:18:48.556Z,17.50
2017-07-11T22:21:16.769Z,17.50
2017-07-11T22:23:45.716Z,17.50
2017-07-11T22:26:13.925Z,17.50
2017-07-11T22:28:42.112Z,17.50
2017-07-11T22:31:11.903Z,17.50
2017-07-11T22:33:40.110Z,17.50
2017-07-11T22:36:08.287Z,17.50
2017-07-11T22:38:36.450Z,17.50
2017-07-11T22:41:04.639Z,17.50
2017-07-11T22:43:32.809Z,17.50
2017-07-11T22:46:00.976Z,17.60
2017-07-11T22:48:29.163Z,17.60
2017-07-11T22:50:57.316Z,17.50
2017-07-11T22:53:26.395Z,17.50
2017-07-11T22:55:54.595Z,17.40
2017-07-11T22:58:23.534Z,17.40
2017-07-11T23:00:51.718Z,17.40
2017-07-11T23:03:19.905Z,17.40
2017-07-11T23:05:48.832Z,17.30
2017-07-11T23:08:16.991Z,17.30
2017-07-11T23:10:45.193Z,17.30
2017-07-11T23:13:13.358Z,17.30
2017-07-11T23:15:41.535Z,17.30
2017-07-11T23:18:09.723Z,17.40
2017-07-11T23:20:37.916Z,17.30
2017-07-11T23:23:06.093Z,17.40
2017-07-11T23:25:34.290Z,17.30
2017-07-11T23:28:03.214Z,17.20
2017-07-11T23:30:31.374Z,17.20
2017-07-11T23:32:59.558Z,17.10
2017-07-11T23:35:27.710Z,17.10
2017-07-11T23:37:55.863Z,17.00
2017-07-11T23:40:24.061Z,17.00
2017-07-11T23:42:53.000Z,16.90
2017-07-11T23:45:21.173Z,16.90
2017-07-11T23:47:49.372Z,16.90
2017-07-11T23:50:17.546Z,17.00
2017-07-11T23:52:45.698Z,17.00
2017-07-11T23:55:13.898Z,17.00
2017-07-11T23:57:42.046Z,17.10
